createdAt,value
2023-10-06T00:02:29.999Z,3.85
2023-10-06T00:04:58.901Z,4.22
2023-10-06T00:07:27.757Z,3.38
2023-10-06T00:09:56.501Z,3.78
2023-10-06T00:12:27.620Z,3.28
2023-10-06T00:14:59.305Z,3.70
2023-10-06T00:17:29.874Z,3.55
2023-10-06T00:20:01.207Z,3.80
2023-10-06T00:22:30.333Z,3.47
2023-10-06T00:25:01.121Z,3.47
2023-10-06T00:27:32.200Z,3.80
2023-10-06T00:30:12.908Z,4.38
2023-10-06T00:32:43.407Z,4.32
2023-10-06T00:35:13.534Z,3.53
2023-10-06T00:37:42.202Z,4.32
2023-10-06T00:40:12.782Z,3.53
2023-10-06T00:42:41.885Z,3.60
2023-10-06T00:45:12.853Z,3.72
2023-10-06T00:47:42.438Z,3.85
2023-10-06T00:50:12.798Z,3.53
2023-10-06T00:52:42.026Z,3.53
2023-10-06T00:55:12.539Z,3.00
2023-10-06T00:57:44.105Z,3.08
2023-10-06T01:00:21.778Z,3.38
2023-10-06T01:02:52.050Z,3.78
2023-10-06T01:05:21.957Z,3.33
2023-10-06T01:07:51.306Z,3.45
2023-10-06T01:10:29.616Z,3.40
2023-10-06T01:13:12.757Z,4.03
2023-10-06T01:15:51.072Z,3.92
2023-10-06T01:18:24.814Z,4.07
2023-10-06T01:20:53.087Z,3.95
2023-10-06T01:23:23.587Z,3.42
2023-10-06T01:25:55.254Z,3.40
2023-10-06T01:28:24.902Z,3.88
2023-10-06T01:30:54.543Z,3.55
2023-10-06T01:33:23.101Z,3.80
2023-10-06T01:35:51.169Z,3.53
2023-10-06T01:38:24.131Z,3.65
2023-10-06T01:40:55.605Z,2.40
2023-10-06T01:43:25.635Z,2.95
2023-10-06T01:45:54.292Z,3.33
2023-10-06T01:48:25.360Z,3.53
2023-10-06T01:50:56.458Z,3.83
2023-10-06T01:53:33.391Z,3.95
2023-10-06T01:56:08.706Z,3.97
2023-10-06T01:58:38.571Z,4.13
2023-10-06T02:01:08.458Z,4.00
2023-10-06T02:03:41.567Z,3.70
2023-10-06T02:06:17.942Z,3.40
2023-10-06T02:08:50.900Z,3.38
2023-10-06T02:11:22.826Z,3.60
2023-10-06T02:13:51.549Z,3.70
2023-10-06T02:16:24.343Z,3.78
2023-10-06T02:18:55.359Z,2.53
2023-10-06T02:21:26.153Z,3.13
2023-10-06T02:23:54.349Z,3.78
2023-10-06T02:26:25.020Z,3.35
2023-10-06T02:28:55.767Z,3.03
2023-10-06T02:31:24.051Z,2.92
2023-10-06T02:33:53.072Z,3.38
2023-10-06T02:36:23.179Z,2.95
2023-10-06T02:38:52.229Z,3.45
2023-10-06T02:41:22.751Z,3.38
2023-10-06T02:43:53.549Z,3.10
2023-10-06T02:46:24.749Z,4.03
2023-10-06T02:48:53.566Z,3.53
2023-10-06T02:51:30.254Z,3.40
2023-10-06T02:54:13.415Z,2.95
2023-10-06T02:56:42.191Z,3.53
2023-10-06T02:59:21.693Z,4.07
2023-10-06T03:01:56.629Z,4.25
2023-10-06T03:04:29.702Z,3.85
2023-10-06T03:07:00.963Z,4.05
2023-10-06T03:09:38.099Z,4.65
2023-10-06T03:12:16.050Z,4.28
2023-10-06T03:14:47.004Z,4.82
2023-10-06T03:17:15.850Z,4.65
2023-10-06T03:19:44.981Z,4.22
2023-10-06T03:22:15.583Z,4.95
2023-10-06T03:24:55.040Z,4.45
2023-10-06T03:27:25.171Z,4.75
2023-10-06T03:29:56.821Z,5.40
2023-10-06T03:32:34.269Z,4.40
2023-10-06T03:35:11.117Z,4.03
2023-10-06T03:37:53.076Z,4.85
2023-10-06T03:40:26.694Z,4.13
2023-10-06T03:42:55.005Z,4.28
2023-10-06T03:45:32.776Z,4.40
2023-10-06T03:48:13.272Z,3.75
2023-10-06T03:50:45.337Z,3.38
2023-10-06T03:53:16.149Z,3.65
2023-10-06T03:55:47.319Z,3.78
2023-10-06T03:58:17.851Z,3.80
2023-10-06T04:00:49.943Z,3.75
2023-10-06T04:03:19.673Z,3.67
2023-10-06T04:05:50.681Z,4.20
2023-10-06T04:08:22.690Z,3.72
2023-10-06T04:10:54.551Z,3.80
2023-10-06T04:13:24.227Z,4.05
2023-10-06T04:15:54.506Z,4.05
2023-10-06T04:18:25.006Z,4.03
2023-10-06T04:20:54.911Z,4.50
2023-10-06T04:23:24.557Z,4.30
2023-10-06T04:25:56.519Z,3.92
2023-10-06T04:28:27.658Z,4.10
2023-10-06T04:30:59.734Z,4.40
2023-10-06T04:33:29.735Z,4.38
2023-10-06T04:36:01.044Z,4.38
2023-10-06T04:38:30.721Z,4.63
2023-10-06T04:40:59.370Z,4.35
2023-10-06T04:43:27.878Z,4.35
2023-10-06T04:45:57.596Z,4.25
2023-10-06T04:48:25.883Z,4.35
2023-10-06T04:50:56.891Z,4.10
2023-10-06T04:53:25.060Z,4.13
2023-10-06T04:55:53.699Z,4.90
2023-10-06T04:58:21.940Z,4.35
2023-10-06T05:00:54.171Z,4.47
2023-10-06T05:03:23.770Z,2.78
2023-10-06T05:05:56.899Z,4.00
2023-10-06T05:08:26.028Z,4.18
2023-10-06T05:10:57.143Z,4.30
2023-10-06T05:13:27.991Z,4.47
2023-10-06T05:15:56.747Z,4.43
2023-10-06T05:18:26.297Z,4.90
2023-10-06T05:20:54.688Z,4.93
2023-10-06T05:23:22.715Z,5.32
2023-10-06T05:25:51.396Z,4.53
2023-10-06T05:28:19.477Z,5.53
2023-10-06T05:30:47.635Z,5.13
2023-10-06T05:33:16.407Z,5.75
2023-10-06T05:35:46.919Z,5.78
2023-10-06T05:38:15.506Z,5.07
2023-10-06T05:40:44.807Z,5.40
2023-10-06T05:43:14.103Z,5.05
2023-10-06T05:45:43.132Z,5.13
2023-10-06T05:48:12.762Z,5.22
2023-10-06T05:50:42.587Z,4.97
2023-10-06T05:53:14.171Z,5.95
2023-10-06T05:55:43.617Z,7.13
2023-10-06T05:58:15.746Z,7.45
2023-10-06T06:00:53.918Z,6.45
2023-10-06T06:03:22.897Z,6.97
2023-10-06T06:05:51.271Z,6.18
2023-10-06T06:08:21.134Z,6.15
2023-10-06T06:10:49.643Z,7.57
2023-10-06T06:13:20.107Z,7.03
2023-10-06T06:15:51.130Z,7.75
2023-10-06T06:18:19.323Z,7.30
2023-10-06T06:20:47.602Z,7.60
2023-10-06T06:23:16.489Z,8.30
2023-10-06T06:25:46.710Z,6.68
2023-10-06T06:28:15.835Z,7.35
2023-10-06T06:30:43.974Z,6.70
2023-10-06T06:33:14.246Z,7.45
2023-10-06T06:35:44.153Z,7.75
2023-10-06T06:38:14.351Z,7.35
2023-10-06T06:40:43.121Z,6.53
2023-10-06T06:43:12.700Z,6.47
2023-10-06T06:45:45.347Z,7.38
2023-10-06T06:48:15.238Z,7.47
2023-10-06T06:50:44.626Z,6.07
2023-10-06T06:53:13.710Z,6.82
2023-10-06T06:55:44.608Z,5.25
2023-10-06T06:58:18.078Z,5.97
2023-10-06T07:00:49.368Z,5.20
2023-10-06T07:03:17.926Z,6.20
2023-10-06T07:05:45.995Z,5.25
2023-10-06T07:08:14.175Z,5.28
2023-10-06T07:10:48.367Z,5.00
2023-10-06T07:13:18.186Z,5.15
2023-10-06T07:15:46.270Z,5.35
2023-10-06T07:18:15.949Z,5.35
2023-10-06T07:20:45.438Z,4.78
2023-10-06T07:23:13.540Z,5.55
2023-10-06T07:25:41.717Z,4.55
2023-10-06T07:28:13.406Z,5.10
2023-10-06T07:30:43.215Z,4.22
2023-10-06T07:33:11.547Z,4.95
2023-10-06T07:35:43.468Z,5.00
2023-10-06T07:38:15.386Z,4.85
2023-10-06T07:40:44.679Z,5.30
2023-10-06T07:43:14.475Z,4.55
2023-10-06T07:45:44.531Z,4.93
2023-10-06T07:48:15.579Z,4.63
2023-10-06T07:50:46.187Z,4.65
2023-10-06T07:53:14.845Z,5.43
2023-10-06T07:55:43.074Z,4.40
2023-10-06T07:58:11.645Z,5.45
2023-10-06T08:00:43.445Z,5.22
2023-10-06T08:03:13.865Z,5.50
2023-10-06T08:05:41.808Z,4.78
2023-10-06T08:08:09.732Z,5.15
2023-10-06T08:10:38.054Z,5.57
2023-10-06T08:13:05.838Z,6.70
2023-10-06T08:15:34.545Z,5.80
2023-10-06T08:18:03.844Z,5.55
2023-10-06T08:20:33.861Z,5.72
2023-10-06T08:23:02.176Z,6.32
2023-10-06T08:25:35.273Z,6.13
2023-10-06T08:28:13.893Z,6.80
2023-10-06T08:30:41.896Z,5.88
2023-10-06T08:33:10.608Z,7.28
2023-10-06T08:35:41.632Z,7.60
2023-10-06T08:38:10.887Z,6.47
2023-10-06T08:40:43.323Z,6.55
2023-10-06T08:43:13.165Z,8.43
2023-10-06T08:45:45.497Z,7.93
2023-10-06T08:48:16.617Z,9.67
2023-10-06T08:50:49.397Z,8.43
2023-10-06T08:53:18.591Z,9.20
2023-10-06T08:55:46.982Z,8.95
2023-10-06T08:58:16.125Z,8.85
2023-10-06T09:00:45.958Z,9.55
2023-10-06T09:03:15.901Z,9.90
2023-10-06T09:05:44.769Z,9.88
2023-10-06T09:08:16.536Z,10.93
2023-10-06T09:10:50.976Z,7.50
2023-10-06T09:13:23.334Z,10.68
2023-10-06T09:16:00.836Z,8.80
2023-10-06T09:18:31.297Z,8.80
2023-10-06T09:21:17.700Z,8.35
2023-10-06T09:23:48.942Z,7.53
2023-10-06T09:26:29.626Z,7.57
2023-10-06T09:29:03.416Z,6.93
2023-10-06T09:31:40.345Z,7.60
2023-10-06T09:34:11.522Z,7.60
2023-10-06T09:36:46.246Z,7.18
2023-10-06T09:39:31.085Z,8.48
2023-10-06T09:42:02.748Z,8.65
2023-10-06T09:44:32.420Z,8.43
2023-10-06T09:47:05.093Z,8.88
2023-10-06T09:49:36.711Z,8.80
2023-10-06T09:52:07.141Z,9.32
2023-10-06T09:54:39.897Z,9.23
2023-10-06T09:57:11.461Z,7.85
2023-10-06T09:59:40.570Z,7.22
2023-10-06T10:02:15.560Z,9.00
2023-10-06T10:04:47.054Z,7.75
2023-10-06T10:07:15.667Z,7.97
2023-10-06T10:09:45.785Z,8.05
2023-10-06T10:12:28.305Z,7.47
2023-10-06T10:15:05.962Z,7.82
2023-10-06T10:17:40.173Z,7.63
2023-10-06T10:20:11.189Z,7.97
2023-10-06T10:22:42.094Z,7.45
2023-10-06T10:25:25.083Z,7.03
2023-10-06T10:30:55.124Z,7.28
2023-10-06T10:33:23.684Z,7.47
2023-10-06T10:36:23.400Z,6.72
2023-10-06T10:39:10.444Z,7.50
2023-10-06T10:41:41.687Z,7.45
2023-10-06T10:44:25.462Z,7.20
2023-10-06T10:46:57.660Z,7.20
2023-10-06T10:52:13.468Z,7.38
2023-10-06T10:54:43.834Z,6.95
2023-10-06T10:57:23.080Z,7.05
2023-10-06T11:00:18.943Z,7.03
2023-10-06T11:03:03.730Z,6.95
2023-10-06T11:05:32.897Z,6.25
2023-10-06T11:08:04.955Z,6.40
2023-10-06T11:10:34.691Z,5.73
2023-10-06T11:13:20.146Z,5.40
2023-10-06T11:15:50.230Z,4.75
2023-10-06T11:18:19.667Z,5.07
2023-10-06T11:20:49.592Z,4.53
2023-10-06T11:23:18.821Z,4.70
2023-10-06T11:25:51.792Z,5.65
2023-10-06T11:28:22.979Z,5.00
2023-10-06T11:30:51.339Z,4.55
2023-10-06T11:33:22.521Z,3.83
2023-10-06T11:35:59.692Z,4.07
2023-10-06T11:38:29.205Z,4.30
2023-10-06T11:40:58.455Z,4.47
2023-10-06T11:43:31.911Z,3.40
2023-10-06T11:46:03.899Z,2.97
2023-10-06T11:51:23.086Z,3.33
2023-10-06T11:53:51.667Z,2.97
2023-10-06T11:56:21.001Z,3.05
2023-10-06T11:58:50.466Z,2.83
2023-10-06T12:01:29.099Z,2.60
2023-10-06T12:04:01.161Z,2.80
2023-10-06T12:06:38.733Z,2.60
2023-10-06T12:09:09.393Z,3.95
2023-10-06T12:11:37.869Z,2.92
2023-10-06T12:14:07.673Z,2.50
2023-10-06T12:16:37.732Z,2.17
2023-10-06T12:19:07.125Z,2.53
2023-10-06T12:21:36.690Z,2.70
2023-10-06T12:24:05.895Z,1.90
2023-10-06T12:26:36.020Z,1.83
2023-10-06T12:29:04.439Z,2.05
2023-10-06T12:31:35.016Z,2.05
2023-10-06T12:34:05.483Z,2.10
2023-10-06T12:36:37.268Z,2.20
2023-10-06T12:39:06.793Z,2.28
2023-10-06T12:41:35.216Z,2.40
2023-10-06T12:44:06.829Z,2.00
2023-10-06T12:46:38.429Z,2.30
2023-10-06T12:51:56.447Z,1.77
2023-10-06T12:54:27.163Z,2.20
2023-10-06T12:56:55.798Z,2.13
2023-10-06T12:59:24.381Z,2.45
2023-10-06T13:01:58.901Z,1.73
2023-10-06T13:04:27.518Z,2.78
2023-10-06T13:06:59.995Z,2.90
2023-10-06T13:09:28.770Z,2.47
2023-10-06T13:11:57.296Z,2.58
2023-10-06T13:14:25.633Z,3.28
2023-10-06T13:16:55.681Z,2.20
2023-10-06T13:19:23.857Z,2.60
2023-10-06T13:21:53.986Z,1.75
2023-10-06T13:24:22.350Z,2.40
2023-10-06T13:26:50.621Z,2.30
2023-10-06T13:29:21.031Z,2.20
2023-10-06T13:31:49.551Z,2.55
2023-10-06T13:34:19.861Z,2.60
2023-10-06T13:36:48.351Z,2.10
2023-10-06T13:39:17.380Z,2.05
2023-10-06T13:41:45.667Z,2.50
2023-10-06T13:44:13.580Z,2.20
2023-10-06T13:46:42.201Z,2.03
2023-10-06T13:49:10.155Z,2.65
2023-10-06T13:51:39.655Z,2.75
2023-10-06T13:54:10.615Z,2.95
2023-10-06T13:56:38.694Z,2.75
2023-10-06T13:59:07.277Z,2.10
2023-10-06T14:01:35.582Z,2.58
2023-10-06T14:04:04.700Z,2.50
2023-10-06T14:06:32.990Z,5.25
2023-10-06T14:09:03.586Z,2.45
2023-10-06T14:11:32.242Z,2.85
2023-10-06T14:14:07.384Z,13.02
2023-10-06T14:16:37.853Z,6.95
2023-10-06T14:19:08.337Z,3.17
2023-10-06T14:21:36.326Z,3.05
2023-10-06T14:24:07.090Z,2.50
2023-10-06T14:26:36.743Z,2.75
2023-10-06T14:29:07.038Z,2.50
2023-10-06T14:31:38.838Z,2.58
2023-10-06T14:34:32.246Z,2.22
2023-10-06T14:37:02.323Z,2.65
2023-10-06T14:39:49.579Z,2.40
2023-10-06T14:42:35.267Z,2.97
2023-10-06T14:45:21.082Z,2.13
2023-10-06T14:47:49.343Z,2.45
2023-10-06T14:50:19.601Z,2.85
2023-10-06T14:52:47.771Z,2.58
2023-10-06T14:55:17.245Z,2.53
2023-10-06T14:57:47.678Z,2.42
2023-10-06T15:00:18.954Z,2.42
2023-10-06T15:02:51.493Z,2.40
2023-10-06T15:05:20.463Z,2.70
2023-10-06T15:07:48.444Z,2.83
2023-10-06T15:10:19.299Z,2.83
2023-10-06T15:12:47.462Z,2.60
2023-10-06T15:15:16.889Z,2.80
2023-10-06T15:20:33.744Z,2.92
2023-10-06T15:23:01.718Z,3.35
2023-10-06T15:25:31.419Z,2.65
2023-10-06T15:27:59.184Z,3.17
2023-10-06T15:30:31.139Z,2.75
2023-10-06T15:32:59.225Z,2.75
2023-10-06T15:35:34.169Z,2.75
2023-10-06T15:38:03.899Z,3.05
2023-10-06T15:40:34.910Z,3.45
2023-10-06T15:43:19.454Z,2.95
2023-10-06T15:45:59.758Z,2.70
2023-10-06T15:48:28.875Z,2.58
2023-10-06T15:50:58.990Z,2.38
2023-10-06T15:53:27.741Z,3.08
2023-10-06T15:55:58.570Z,2.72
2023-10-06T15:58:26.594Z,2.97
2023-10-06T16:00:55.805Z,2.53
2023-10-06T16:03:23.868Z,2.60
2023-10-06T16:05:52.084Z,2.72
2023-10-06T16:08:20.958Z,3.08
2023-10-06T16:10:49.984Z,3.20
2023-10-06T16:13:19.786Z,2.35
2023-10-06T16:15:59.736Z,2.50
2023-10-06T16:18:35.558Z,2.63
2023-10-06T16:21:05.475Z,2.85
2023-10-06T16:23:33.730Z,2.80
2023-10-06T16:26:03.282Z,2.65
2023-10-06T16:28:32.981Z,2.97
2023-10-06T16:31:01.042Z,2.90
2023-10-06T16:33:29.982Z,3.17
2023-10-06T16:35:58.654Z,3.50
2023-10-06T16:38:26.736Z,3.08
2023-10-06T16:40:54.765Z,2.92
2023-10-06T16:43:22.814Z,3.53
2023-10-06T16:45:52.219Z,3.38
2023-10-06T16:48:20.346Z,3.58
2023-10-06T16:50:48.015Z,3.00
2023-10-06T16:53:16.752Z,3.35
2023-10-06T16:55:44.867Z,3.30
2023-10-06T16:58:12.938Z,3.13
2023-10-06T17:00:41.356Z,3.53
2023-10-06T17:03:11.355Z,3.47
2023-10-06T17:05:44.119Z,3.72
2023-10-06T17:08:12.240Z,3.30
2023-10-06T17:10:40.440Z,3.60
2023-10-06T17:13:09.763Z,4.13
2023-10-06T17:15:37.972Z,3.92
2023-10-06T17:18:08.099Z,4.32
2023-10-06T17:20:38.955Z,4.45
2023-10-06T17:23:07.454Z,3.08
2023-10-06T17:25:36.587Z,4.00
2023-10-06T17:28:05.155Z,4.20
2023-10-06T17:30:37.619Z,4.30
2023-10-06T17:33:08.317Z,4.33
2023-10-06T17:35:40.180Z,4.53
2023-10-06T17:38:08.883Z,4.53
2023-10-06T17:40:39.760Z,4.40
2023-10-06T17:43:08.661Z,4.35
2023-10-06T17:45:39.322Z,4.45
2023-10-06T17:48:08.025Z,4.32
2023-10-06T17:50:36.645Z,4.63
2023-10-06T17:53:06.567Z,5.03
2023-10-06T17:55:35.243Z,5.05
2023-10-06T17:58:04.151Z,4.40
2023-10-06T18:00:33.003Z,4.28
2023-10-06T18:03:01.477Z,4.65
2023-10-06T18:05:29.399Z,4.00
2023-10-06T18:07:57.424Z,4.18
2023-10-06T18:10:30.327Z,5.20
2023-10-06T18:12:58.686Z,5.18
2023-10-06T18:15:26.499Z,4.93
2023-10-06T18:17:54.758Z,4.63
2023-10-06T18:20:23.385Z,4.70
2023-10-06T18:22:51.424Z,4.35
2023-10-06T18:25:19.537Z,4.20
2023-10-06T18:27:49.774Z,4.18
2023-10-06T18:30:18.655Z,4.05
2023-10-06T18:32:46.735Z,4.30
2023-10-06T18:35:14.626Z,4.10
2023-10-06T18:37:43.246Z,4.22
2023-10-06T18:40:14.776Z,4.22
2023-10-06T18:45:41.713Z,4.10
2023-10-06T18:48:09.925Z,4.78
2023-10-06T18:50:37.910Z,4.35
2023-10-06T18:53:05.858Z,4.10
2023-10-06T18:55:33.823Z,4.72
2023-10-06T18:58:02.399Z,5.10
2023-10-06T19:00:33.001Z,5.65
2023-10-06T19:03:02.767Z,5.28
2023-10-06T19:05:30.927Z,5.68
2023-10-06T19:07:59.868Z,5.03
2023-10-06T19:10:28.203Z,5.28
2023-10-06T19:12:56.296Z,4.93
2023-10-06T19:15:24.399Z,5.75
2023-10-06T19:17:53.174Z,6.20
2023-10-06T19:20:26.409Z,5.32
2023-10-06T19:22:55.754Z,5.63
2023-10-06T19:25:24.154Z,4.93
2023-10-06T19:27:52.189Z,5.10
2023-10-06T19:30:21.116Z,5.07
2023-10-06T19:32:49.787Z,6.15
2023-10-06T19:35:17.859Z,4.47
2023-10-06T19:37:50.622Z,5.68
2023-10-06T19:40:21.039Z,5.03
2023-10-06T19:42:49.085Z,4.93
2023-10-06T19:45:17.428Z,4.63
2023-10-06T19:47:46.125Z,4.53
2023-10-06T19:50:14.391Z,4.82
2023-10-06T19:52:42.522Z,4.78
2023-10-06T19:55:12.479Z,5.00
2023-10-06T19:57:42.668Z,4.93
2023-10-06T20:00:13.302Z,4.70
2023-10-06T20:02:43.116Z,5.20
2023-10-06T20:05:12.944Z,5.15
2023-10-06T20:07:40.925Z,5.20
2023-10-06T20:10:10.303Z,5.38
2023-10-06T20:12:39.668Z,5.20
2023-10-06T20:15:08.761Z,5.07
2023-10-06T20:17:37.282Z,5.57
2023-10-06T20:20:07.216Z,5.60
2023-10-06T20:22:36.656Z,6.10
2023-10-06T20:25:09.772Z,5.30
2023-10-06T20:27:40.496Z,7.60
2023-10-06T20:30:11.833Z,7.40
2023-10-06T20:32:42.142Z,7.68
2023-10-06T20:35:10.500Z,6.32
2023-10-06T20:37:39.172Z,6.20
2023-10-06T20:40:11.453Z,6.60
2023-10-06T20:42:41.691Z,5.95
2023-10-06T20:45:12.352Z,6.22
2023-10-06T20:47:42.960Z,5.88
2023-10-06T20:50:13.782Z,6.30
2023-10-06T20:52:46.343Z,6.32
2023-10-06T20:55:15.756Z,7.10
2023-10-06T20:57:47.366Z,7.07
2023-10-06T21:00:19.281Z,6.07
2023-10-06T21:02:48.589Z,6.68
2023-10-06T21:05:18.459Z,6.60
2023-10-06T21:07:46.639Z,5.55
2023-10-06T21:10:15.878Z,6.20
2023-10-06T21:12:45.655Z,6.60
2023-10-06T21:15:15.877Z,6.13
2023-10-06T21:17:45.020Z,5.93
2023-10-06T21:20:16.288Z,5.97
2023-10-06T21:22:44.505Z,5.05
2023-10-06T21:25:14.711Z,6.63
2023-10-06T21:27:45.958Z,5.97
2023-10-06T21:30:17.318Z,5.85
2023-10-06T21:32:46.745Z,5.75
2023-10-06T21:35:16.678Z,5.93
2023-10-06T21:37:45.586Z,5.57
2023-10-06T21:40:14.333Z,5.80
2023-10-06T21:42:42.774Z,5.55
2023-10-06T21:45:13.557Z,5.35
2023-10-06T21:47:41.699Z,5.50
2023-10-06T21:50:10.723Z,5.43
2023-10-06T21:55:27.328Z,5.82
2023-10-06T21:57:55.573Z,6.18
2023-10-06T22:00:30.040Z,5.97
2023-10-06T22:02:58.367Z,6.13
2023-10-06T22:05:26.284Z,5.60
2023-10-06T22:07:54.317Z,6.10
2023-10-06T22:10:25.744Z,5.25
2023-10-06T22:12:54.579Z,5.25
2023-10-06T22:15:23.657Z,6.13
2023-10-06T22:17:52.155Z,5.45
2023-10-06T22:20:23.323Z,6.53
2023-10-06T22:22:52.007Z,5.85
2023-10-06T22:25:21.227Z,6.20
2023-10-06T22:27:50.362Z,6.10
2023-10-06T22:30:18.862Z,5.38
2023-10-06T22:32:48.744Z,5.80
2023-10-06T22:35:17.492Z,5.72
2023-10-06T22:37:45.694Z,5.60
2023-10-06T22:40:18.466Z,6.30
2023-10-06T22:42:49.131Z,6.18
2023-10-06T22:45:19.840Z,5.38
2023-10-06T22:47:50.123Z,6.20
2023-10-06T22:50:20.522Z,5.75
2023-10-06T22:52:50.486Z,6.72
2023-10-06T22:55:20.494Z,6.85
2023-10-06T22:57:50.106Z,6.25
2023-10-06T23:00:19.195Z,7.10
2023-10-06T23:02:48.719Z,6.78
2023-10-06T23:05:18.623Z,6.30
2023-10-06T23:07:48.417Z,7.20
2023-10-06T23:10:18.465Z,7.47
2023-10-06T23:12:56.980Z,7.20
2023-10-06T23:15:32.940Z,6.93
2023-10-06T23:18:01.459Z,6.57
2023-10-06T23:20:32.326Z,7.05
2023-10-06T23:23:00.414Z,7.38
2023-10-06T23:25:37.787Z,7.00
2023-10-06T23:28:08.077Z,7.38
2023-10-06T23:30:36.516Z,6.88
2023-10-06T23:33:05.559Z,7.53
2023-10-06T23:35:35.321Z,6.68
2023-10-06T23:38:07.799Z,7.82
2023-10-06T23:40:39.384Z,8.02
2023-10-06T23:43:10.314Z,7.85
2023-10-06T23:45:39.136Z,7.65
2023-10-06T23:48:14.308Z,6.88
2023-10-06T23:50:52.604Z,7.22
2023-10-06T23:53:24.265Z,6.82
2023-10-06T23:55:52.474Z,6.75
2023-10-06T23:58:21.503Z,7.15
